sensor_id;sensor_type;location;lat;lon;timestamp;temperature;humidity
76785;SHT30;66893;44.316;0.092;2023-04-06T00:01:17;19.34;30.78
76785;SHT30;66893;44.316;0.092;2023-04-06T00:03:42;19.30;30.75
76785;SHT30;66893;44.316;0.092;2023-04-06T00:06:08;19.26;30.78
76785;SHT30;66893;44.316;0.092;2023-04-06T00:08:33;19.22;30.76
76785;SHT30;66893;44.316;0.092;2023-04-06T00:10:59;19.19;30.74
76785;SHT30;66893;44.316;0.092;2023-04-06T00:13:24;19.16;30.75
76785;SHT30;66893;44.316;0.092;2023-04-06T00:15:50;19.13;30.81
76785;SHT30;66893;44.316;0.092;2023-04-06T00:18:15;19.10;30.69
76785;SHT30;66893;44.316;0.092;2023-04-06T00:20:41;19.06;30.78
76785;SHT30;66893;44.316;0.092;2023-04-06T00:23:06;19.02;30.64
76785;SHT30;66893;44.316;0.092;2023-04-06T00:25:32;19.00;30.68
76785;SHT30;66893;44.316;0.092;2023-04-06T00:27:57;18.96;30.75
76785;SHT30;66893;44.316;0.092;2023-04-06T00:30:23;18.91;30.71
76785;SHT30;66893;44.316;0.092;2023-04-06T00:32:48;18.88;30.75
76785;SHT30;66893;44.316;0.092;2023-04-06T00:35:14;18.82;30.88
76785;SHT30;66893;44.316;0.092;2023-04-06T00:37:40;18.84;30.78
76785;SHT30;66893;44.316;0.092;2023-04-06T00:40:06;18.78;30.73
76785;SHT30;66893;44.316;0.092;2023-04-06T00:42:32;18.73;30.99
76785;SHT30;66893;44.316;0.092;2023-04-06T00:44:59;18.72;30.75
76785;SHT30;66893;44.316;0.092;2023-04-06T00:47:25;18.69;30.89
76785;SHT30;66893;44.316;0.092;2023-04-06T00:49:52;18.68;30.77
76785;SHT30;66893;44.316;0.092;2023-04-06T00:52:19;18.68;30.69
76785;SHT30;66893;44.316;0.092;2023-04-06T00:54:45;18.67;30.71
76785;SHT30;66893;44.316;0.092;2023-04-06T00:57:13;18.71;30.61
76785;SHT30;66893;44.316;0.092;2023-04-06T00:59:40;18.68;30.64
76785;SHT30;66893;44.316;0.092;2023-04-06T01:02:06;18.68;30.64
76785;SHT30;66893;44.316;0.092;2023-04-06T01:04:32;18.67;30.64
76785;SHT30;66893;44.316;0.092;2023-04-06T01:06:57;18.65;30.64
76785;SHT30;66893;44.316;0.092;2023-04-06T01:09:23;18.64;30.61
76785;SHT30;66893;44.316;0.092;2023-04-06T01:11:48;18.61;30.59
76785;SHT30;66893;44.316;0.092;2023-04-06T01:14:14;18.58;30.61
76785;SHT30;66893;44.316;0.092;2023-04-06T01:16:41;18.55;30.62
76785;SHT30;66893;44.316;0.092;2023-04-06T01:19:10;18.57;30.59
76785;SHT30;66893;44.316;0.092;2023-04-06T01:21:37;18.54;30.63
76785;SHT30;66893;44.316;0.092;2023-04-06T01:24:03;18.52;30.65
76785;SHT30;66893;44.316;0.092;2023-04-06T01:26:29;18.51;30.65
76785;SHT30;66893;44.316;0.092;2023-04-06T01:28:56;18.47;30.60
76785;SHT30;66893;44.316;0.092;2023-04-06T01:31:22;18.47;30.69
76785;SHT30;66893;44.316;0.092;2023-04-06T01:33:48;18.45;30.68
76785;SHT30;66893;44.316;0.092;2023-04-06T01:36:14;18.43;30.69
76785;SHT30;66893;44.316;0.092;2023-04-06T01:38:40;18.41;30.76
76785;SHT30;66893;44.316;0.092;2023-04-06T01:41:07;18.40;30.76
76785;SHT30;66893;44.316;0.092;2023-04-06T01:43:32;18.38;30.72
76785;SHT30;66893;44.316;0.092;2023-04-06T01:45:57;18.38;30.79
76785;SHT30;66893;44.316;0.092;2023-04-06T01:48:23;18.37;30.84
76785;SHT30;66893;44.316;0.092;2023-04-06T01:50:48;18.31;30.82
76785;SHT30;66893;44.316;0.092;2023-04-06T01:53:14;18.29;30.83
76785;SHT30;66893;44.316;0.092;2023-04-06T01:55:40;18.31;30.88
76785;SHT30;66893;44.316;0.092;2023-04-06T01:58:06;18.29;30.91
76785;SHT30;66893;44.316;0.092;2023-04-06T02:00:31;18.30;30.98
76785;SHT30;66893;44.316;0.092;2023-04-06T02:02:57;18.24;30.98
76785;SHT30;66893;44.316;0.092;2023-04-06T02:05:22;18.24;31.03
76785;SHT30;66893;44.316;0.092;2023-04-06T02:07:48;18.23;31.06
76785;SHT30;66893;44.316;0.092;2023-04-06T02:10:14;18.22;31.09
76785;SHT30;66893;44.316;0.092;2023-04-06T02:12:40;18.18;31.12
76785;SHT30;66893;44.316;0.092;2023-04-06T02:15:06;18.18;31.16
76785;SHT30;66893;44.316;0.092;2023-04-06T02:17:31;18.17;31.19
76785;SHT30;66893;44.316;0.092;2023-04-06T02:19:57;18.14;31.29
76785;SHT30;66893;44.316;0.092;2023-04-06T02:22:22;18.12;31.29
76785;SHT30;66893;44.316;0.092;2023-04-06T02:24:48;18.13;31.31
76785;SHT30;66893;44.316;0.092;2023-04-06T02:27:16;18.12;31.37
76785;SHT30;66893;44.316;0.092;2023-04-06T02:29:41;18.10;31.40
76785;SHT30;66893;44.316;0.092;2023-04-06T02:32:07;18.07;31.38
76785;SHT30;66893;44.316;0.092;2023-04-06T02:34:32;18.09;31.45
76785;SHT30;66893;44.316;0.092;2023-04-06T02:36:58;18.06;31.41
76785;SHT30;66893;44.316;0.092;2023-04-06T02:39:23;18.02;31.48
76785;SHT30;66893;44.316;0.092;2023-04-06T02:41:49;18.02;31.58
76785;SHT30;66893;44.316;0.092;2023-04-06T02:44:14;18.00;31.57
76785;SHT30;66893;44.316;0.092;2023-04-06T02:46:40;18.00;31.56
76785;SHT30;66893;44.316;0.092;2023-04-06T02:49:05;17.96;31.55
76785;SHT30;66893;44.316;0.092;2023-04-06T02:51:31;17.97;31.65
76785;SHT30;66893;44.316;0.092;2023-04-06T02:53:57;17.95;31.68
76785;SHT30;66893;44.316;0.092;2023-04-06T02:56:23;17.93;31.75
76785;SHT30;66893;44.316;0.092;2023-04-06T02:58:48;17.92;31.74
76785;SHT30;66893;44.316;0.092;2023-04-06T03:01:14;17.87;31.78
76785;SHT30;66893;44.316;0.092;2023-04-06T03:03:40;17.89;31.82
76785;SHT30;66893;44.316;0.092;2023-04-06T03:06:05;17.89;31.87
76785;SHT30;66893;44.316;0.092;2023-04-06T03:08:32;17.87;31.81
76785;SHT30;66893;44.316;0.092;2023-04-06T03:10:58;17.87;31.90
76785;SHT30;66893;44.316;0.092;2023-04-06T03:13:23;17.83;31.94
76785;SHT30;66893;44.316;0.092;2023-04-06T03:15:49;17.82;31.96
76785;SHT30;66893;44.316;0.092;2023-04-06T03:18:14;17.81;32.00
76785;SHT30;66893;44.316;0.092;2023-04-06T03:20:40;17.81;32.00
76785;SHT30;66893;44.316;0.092;2023-04-06T03:23:05;17.79;32.00
76785;SHT30;66893;44.316;0.092;2023-04-06T03:25:31;17.78;32.11
76785;SHT30;66893;44.316;0.092;2023-04-06T03:27:56;17.75;32.08
76785;SHT30;66893;44.316;0.092;2023-04-06T03:30:22;17.75;32.20
76785;SHT30;66893;44.316;0.092;2023-04-06T03:32:47;17.74;32.15
76785;SHT30;66893;44.316;0.092;2023-04-06T03:35:13;17.76;32.21
76785;SHT30;66893;44.316;0.092;2023-04-06T03:37:38;17.74;32.30
76785;SHT30;66893;44.316;0.092;2023-04-06T03:40:05;17.69;32.30
76785;SHT30;66893;44.316;0.092;2023-04-06T03:42:30;17.69;32.28
76785;SHT30;66893;44.316;0.092;2023-04-06T03:44:58;17.69;32.37
76785;SHT30;66893;44.316;0.092;2023-04-06T03:47:23;17.67;32.36
76785;SHT30;66893;44.316;0.092;2023-04-06T03:49:48;17.65;32.36
76785;SHT30;66893;44.316;0.092;2023-04-06T03:52:14;17.62;32.40
76785;SHT30;66893;44.316;0.092;2023-04-06T03:54:39;17.62;32.41
76785;SHT30;66893;44.316;0.092;2023-04-06T03:57:05;17.64;32.49
76785;SHT30;66893;44.316;0.092;2023-04-06T03:59:30;17.61;32.49
76785;SHT30;66893;44.316;0.092;2023-04-06T04:01:56;17.59;32.58
76785;SHT30;66893;44.316;0.092;2023-04-06T04:04:21;17.62;32.56
76785;SHT30;66893;44.316;0.092;2023-04-06T04:06:47;17.58;32.60
76785;SHT30;66893;44.316;0.092;2023-04-06T04:09:12;17.57;32.65
76785;SHT30;66893;44.316;0.092;2023-04-06T04:11:38;17.55;32.64
76785;SHT30;66893;44.316;0.092;2023-04-06T04:14:03;17.52;32.68
76785;SHT30;66893;44.316;0.092;2023-04-06T04:16:29;17.55;32.71
76785;SHT30;66893;44.316;0.092;2023-04-06T04:18:54;17.54;32.83
76785;SHT30;66893;44.316;0.092;2023-04-06T04:21:20;17.51;32.85
76785;SHT30;66893;44.316;0.092;2023-04-06T04:23:46;17.52;32.91
76785;SHT30;66893;44.316;0.092;2023-04-06T04:26:11;17.48;32.97
76785;SHT30;66893;44.316;0.092;2023-04-06T04:28:37;17.50;32.95
76785;SHT30;66893;44.316;0.092;2023-04-06T04:31:02;17.45;32.96
76785;SHT30;66893;44.316;0.092;2023-04-06T04:33:28;17.45;33.05
76785;SHT30;66893;44.316;0.092;2023-04-06T04:35:53;17.45;33.08
76785;SHT30;66893;44.316;0.092;2023-04-06T04:38:18;17.42;33.08
76785;SHT30;66893;44.316;0.092;2023-04-06T04:40:44;17.41;33.08
76785;SHT30;66893;44.316;0.092;2023-04-06T04:43:10;17.42;33.15
76785;SHT30;66893;44.316;0.092;2023-04-06T04:45:36;17.38;33.15
76785;SHT30;66893;44.316;0.092;2023-04-06T04:48:01;17.37;33.22
76785;SHT30;66893;44.316;0.092;2023-04-06T04:50:27;17.35;33.20
76785;SHT30;66893;44.316;0.092;2023-04-06T04:52:52;17.35;33.14
76785;SHT30;66893;44.316;0.092;2023-04-06T04:55:17;17.34;33.23
76785;SHT30;66893;44.316;0.092;2023-04-06T04:57:43;17.28;33.22
76785;SHT30;66893;44.316;0.092;2023-04-06T05:00:09;17.30;33.24
76785;SHT30;66893;44.316;0.092;2023-04-06T05:02:35;17.27;33.31
76785;SHT30;66893;44.316;0.092;2023-04-06T05:05:00;17.28;33.29
76785;SHT30;66893;44.316;0.092;2023-04-06T05:07:26;17.26;33.27
76785;SHT30;66893;44.316;0.092;2023-04-06T05:09:52;17.26;33.35
76785;SHT30;66893;44.316;0.092;2023-04-06T05:12:18;17.27;33.45
76785;SHT30;66893;44.316;0.092;2023-04-06T05:14:44;17.24;33.39
76785;SHT30;66893;44.316;0.092;2023-04-06T05:17:10;17.21;33.38
76785;SHT30;66893;44.316;0.092;2023-04-06T05:19:35;17.21;33.48
76785;SHT30;66893;44.316;0.092;2023-04-06T05:22:01;17.21;33.44
76785;SHT30;66893;44.316;0.092;2023-04-06T05:24:26;17.20;33.48
76785;SHT30;66893;44.316;0.092;2023-04-06T05:26:52;17.21;33.53
76785;SHT30;66893;44.316;0.092;2023-04-06T05:29:18;17.17;33.57
76785;SHT30;66893;44.316;0.092;2023-04-06T05:31:44;17.16;33.58
76785;SHT30;66893;44.316;0.092;2023-04-06T05:34:09;17.14;33.65
76785;SHT30;66893;44.316;0.092;2023-04-06T05:36:35;17.14;33.63
76785;SHT30;66893;44.316;0.092;2023-04-06T05:39:01;17.12;33.66
76785;SHT30;66893;44.316;0.092;2023-04-06T05:41:26;17.09;33.73
76785;SHT30;66893;44.316;0.092;2023-04-06T05:43:52;17.09;33.79
76785;SHT30;66893;44.316;0.092;2023-04-06T05:46:18;17.07;33.78
76785;SHT30;66893;44.316;0.092;2023-04-06T05:48:44;17.09;33.71
76785;SHT30;66893;44.316;0.092;2023-04-06T05:51:10;17.09;33.83
76785;SHT30;66893;44.316;0.092;2023-04-06T05:53:35;17.04;33.92
76785;SHT30;66893;44.316;0.092;2023-04-06T05:56:02;17.02;34.06
76785;SHT30;66893;44.316;0.092;2023-04-06T05:58:28;17.02;34.08
76785;SHT30;66893;44.316;0.092;2023-04-06T06:01:00;17.00;34.03
76785;SHT30;66893;44.316;0.092;2023-04-06T06:03:26;16.96;34.15
76785;SHT30;66893;44.316;0.092;2023-04-06T06:05:51;16.95;34.23
76785;SHT30;66893;44.316;0.092;2023-04-06T06:08:17;16.93;34.16
76785;SHT30;66893;44.316;0.092;2023-04-06T06:10:42;16.92;34.30
76785;SHT30;66893;44.316;0.092;2023-04-06T06:13:08;16.89;34.34
76785;SHT30;66893;44.316;0.092;2023-04-06T06:15:34;16.89;34.30
76785;SHT30;66893;44.316;0.092;2023-04-06T06:17:59;16.86;34.49
76785;SHT30;66893;44.316;0.092;2023-04-06T06:20:25;16.85;34.51
76785;SHT30;66893;44.316;0.092;2023-04-06T06:22:51;16.86;34.66
76785;SHT30;66893;44.316;0.092;2023-04-06T06:25:17;16.87;34.68
76785;SHT30;66893;44.316;0.092;2023-04-06T06:27:43;16.89;34.68
76785;SHT30;66893;44.316;0.092;2023-04-06T06:30:08;16.87;34.71
76785;SHT30;66893;44.316;0.092;2023-04-06T06:32:34;16.90;34.72
76785;SHT30;66893;44.316;0.092;2023-04-06T06:35:00;16.93;34.79
76785;SHT30;66893;44.316;0.092;2023-04-06T06:37:25;16.93;34.79
76785;SHT30;66893;44.316;0.092;2023-04-06T06:39:51;16.96;34.84
76785;SHT30;66893;44.316;0.092;2023-04-06T06:42:16;16.99;34.88
76785;SHT30;66893;44.316;0.092;2023-04-06T06:44:42;16.99;34.88
76785;SHT30;66893;44.316;0.092;2023-04-06T06:47:07;17.02;34.84
76785;SHT30;66893;44.316;0.092;2023-04-06T06:49:32;17.03;35.01
76785;SHT30;66893;44.316;0.092;2023-04-06T06:51:58;17.03;34.94
76785;SHT30;66893;44.316;0.092;2023-04-06T06:54:23;17.06;35.07
76785;SHT30;66893;44.316;0.092;2023-04-06T06:56:49;17.07;35.12
76785;SHT30;66893;44.316;0.092;2023-04-06T06:59:14;17.12;35.14
76785;SHT30;66893;44.316;0.092;2023-04-06T07:01:41;17.12;35.42
76785;SHT30;66893;44.316;0.092;2023-04-06T07:04:07;17.12;35.44
76785;SHT30;66893;44.316;0.092;2023-04-06T07:06:35;17.16;35.03
76785;SHT30;66893;44.316;0.092;2023-04-06T07:09:01;17.04;35.26
76785;SHT30;66893;44.316;0.092;2023-04-06T07:11:29;16.90;35.69
76785;SHT30;66893;44.316;0.092;2023-04-06T07:13:55;16.90;36.06
76785;SHT30;66893;44.316;0.092;2023-04-06T07:16:21;16.93;36.14
76785;SHT30;66893;44.316;0.092;2023-04-06T07:18:46;16.96;36.12
76785;SHT30;66893;44.316;0.092;2023-04-06T07:21:11;16.99;36.09
76785;SHT30;66893;44.316;0.092;2023-04-06T07:23:37;17.04;36.17
76785;SHT30;66893;44.316;0.092;2023-04-06T07:26:03;17.06;36.26
76785;SHT30;66893;44.316;0.092;2023-04-06T07:28:28;17.10;36.20
76785;SHT30;66893;44.316;0.092;2023-04-06T07:30:54;17.13;36.22
76785;SHT30;66893;44.316;0.092;2023-04-06T07:33:20;17.14;36.26
76785;SHT30;66893;44.316;0.092;2023-04-06T07:35:45;17.17;36.27
76785;SHT30;66893;44.316;0.092;2023-04-06T07:38:11;17.24;36.38
76785;SHT30;66893;44.316;0.092;2023-04-06T07:40:37;17.24;36.32
76785;SHT30;66893;44.316;0.092;2023-04-06T07:43:02;17.27;36.31
76785;SHT30;66893;44.316;0.092;2023-04-06T07:45:28;17.28;36.31
76785;SHT30;66893;44.316;0.092;2023-04-06T07:47:53;17.28;36.27
76785;SHT30;66893;44.316;0.092;2023-04-06T07:50:19;17.32;36.28
76785;SHT30;66893;44.316;0.092;2023-04-06T07:52:45;17.30;36.11
76785;SHT30;66893;44.316;0.092;2023-04-06T07:55:11;17.16;36.13
76785;SHT30;66893;44.316;0.092;2023-04-06T07:57:36;17.04;36.41
76785;SHT30;66893;44.316;0.092;2023-04-06T08:00:02;16.92;36.63
76785;SHT30;66893;44.316;0.092;2023-04-06T08:02:29;16.79;36.82
76785;SHT30;66893;44.316;0.092;2023-04-06T08:04:55;16.73;37.18
76785;SHT30;66893;44.316;0.092;2023-04-06T08:07:20;16.65;37.19
76785;SHT30;66893;44.316;0.092;2023-04-06T08:09:46;16.62;37.24
76785;SHT30;66893;44.316;0.092;2023-04-06T08:12:11;16.57;37.35
76785;SHT30;66893;44.316;0.092;2023-04-06T08:14:37;16.52;37.58
76785;SHT30;66893;44.316;0.092;2023-04-06T08:17:02;16.49;37.83
76785;SHT30;66893;44.316;0.092;2023-04-06T08:19:28;16.49;37.79
76785;SHT30;66893;44.316;0.092;2023-04-06T08:21:53;16.48;37.77
76785;SHT30;66893;44.316;0.092;2023-04-06T08:24:19;16.48;38.14
76785;SHT30;66893;44.316;0.092;2023-04-06T08:26:44;16.47;38.20
76785;SHT30;66893;44.316;0.092;2023-04-06T08:29:09;16.49;38.23
76785;SHT30;66893;44.316;0.092;2023-04-06T08:31:36;16.49;38.36
76785;SHT30;66893;44.316;0.092;2023-04-06T08:34:03;16.49;38.50
76785;SHT30;66893;44.316;0.092;2023-04-06T08:36:29;16.54;38.53
76785;SHT30;66893;44.316;0.092;2023-04-06T08:38:55;16.54;38.76
76785;SHT30;66893;44.316;0.092;2023-04-06T08:41:20;16.58;38.91
76785;SHT30;66893;44.316;0.092;2023-04-06T08:46:13;16.66;39.03
76785;SHT30;66893;44.316;0.092;2023-04-06T08:48:40;16.73;38.81
76785;SHT30;66893;44.316;0.092;2023-04-06T08:51:08;16.79;38.92
76785;SHT30;66893;44.316;0.092;2023-04-06T08:53:33;16.86;38.85
76785;SHT30;66893;44.316;0.092;2023-04-06T08:55:59;16.92;38.63
76785;SHT30;66893;44.316;0.092;2023-04-06T08:58:28;17.02;38.66
76785;SHT30;66893;44.316;0.092;2023-04-06T09:00:54;17.12;38.65
76785;SHT30;66893;44.316;0.092;2023-04-06T09:03:21;17.19;38.62
76785;SHT30;66893;44.316;0.092;2023-04-06T09:05:47;17.23;38.52
76785;SHT30;66893;44.316;0.092;2023-04-06T09:08:13;17.30;38.34
76785;SHT30;66893;44.316;0.092;2023-04-06T09:10:40;17.37;38.50
76785;SHT30;66893;44.316;0.092;2023-04-06T09:13:07;17.42;38.52
76785;SHT30;66893;44.316;0.092;2023-04-06T09:15:33;17.54;38.39
76785;SHT30;66893;44.316;0.092;2023-04-06T09:17:59;17.59;38.38
76785;SHT30;66893;44.316;0.092;2023-04-06T09:20:26;17.69;37.94
76785;SHT30;66893;44.316;0.092;2023-04-06T09:22:54;17.78;37.60
76785;SHT30;66893;44.316;0.092;2023-04-06T09:25:24;17.79;37.45
76785;SHT30;66893;44.316;0.092;2023-04-06T09:28:02;17.85;37.26
76785;SHT30;66893;44.316;0.092;2023-04-06T09:30:28;17.90;37.37
76785;SHT30;66893;44.316;0.092;2023-04-06T09:32:56;17.95;37.36
76785;SHT30;66893;44.316;0.092;2023-04-06T09:35:23;17.96;37.15
76785;SHT30;66893;44.316;0.092;2023-04-06T09:37:50;18.00;37.00
76785;SHT30;66893;44.316;0.092;2023-04-06T09:40:17;18.06;37.12
76785;SHT30;66893;44.316;0.092;2023-04-06T09:42:48;18.07;36.94
76785;SHT30;66893;44.316;0.092;2023-04-06T09:45:15;18.12;36.87
76785;SHT30;66893;44.316;0.092;2023-04-06T09:47:43;18.14;37.07
76785;SHT30;66893;44.316;0.092;2023-04-06T09:50:11;18.22;36.48
76785;SHT30;66893;44.316;0.092;2023-04-06T09:55:07;18.29;36.97
76785;SHT30;66893;44.316;0.092;2023-04-06T10:00:08;18.38;36.89
76785;SHT30;66893;44.316;0.092;2023-04-06T10:05:16;18.48;36.78
76785;SHT30;66893;44.316;0.092;2023-04-06T10:07:42;18.54;36.76
76785;SHT30;66893;44.316;0.092;2023-04-06T10:10:10;18.57;36.04
76785;SHT30;66893;44.316;0.092;2023-04-06T10:12:38;18.59;36.43
76785;SHT30;66893;44.316;0.092;2023-04-06T10:15:04;18.61;35.73
76785;SHT30;66893;44.316;0.092;2023-04-06T10:17:30;18.69;36.13
76785;SHT30;66893;44.316;0.092;2023-04-06T10:20:03;18.72;36.26
76785;SHT30;66893;44.316;0.092;2023-04-06T10:25:29;18.84;36.26
76785;SHT30;66893;44.316;0.092;2023-04-06T10:30:26;18.94;36.04
76785;SHT30;66893;44.316;0.092;2023-04-06T10:32:53;18.98;36.03
76785;SHT30;66893;44.316;0.092;2023-04-06T10:35:18;19.02;36.05
76785;SHT30;66893;44.316;0.092;2023-04-06T10:38:00;19.09;35.95
76785;SHT30;66893;44.316;0.092;2023-04-06T10:40:26;19.12;35.77
76785;SHT30;66893;44.316;0.092;2023-04-06T10:42:55;19.19;35.48
76785;SHT30;66893;44.316;0.092;2023-04-06T10:45:31;19.31;34.47
76785;SHT30;66893;44.316;0.092;2023-04-06T10:47:57;19.37;34.47
76785;SHT30;66893;44.316;0.092;2023-04-06T10:50:23;19.47;34.75
76785;SHT30;66893;44.316;0.092;2023-04-06T10:53:02;19.60;34.70
76785;SHT30;66893;44.316;0.092;2023-04-06T10:55:28;19.64;34.79
76785;SHT30;66893;44.316;0.092;2023-04-06T10:57:54;19.69;34.40
76785;SHT30;66893;44.316;0.092;2023-04-06T11:00:20;19.79;34.80
76785;SHT30;66893;44.316;0.092;2023-04-06T11:02:46;19.83;34.41
76785;SHT30;66893;44.316;0.092;2023-04-06T11:05:12;19.90;34.41
76785;SHT30;66893;44.316;0.092;2023-04-06T11:07:40;19.96;34.60
76785;SHT30;66893;44.316;0.092;2023-04-06T11:10:07;20.04;34.01
76785;SHT30;66893;44.316;0.092;2023-04-06T11:12:33;20.09;34.28
76785;SHT30;66893;44.316;0.092;2023-04-06T11:15:01;20.17;34.05
76785;SHT30;66893;44.316;0.092;2023-04-06T11:17:33;20.23;34.22
76785;SHT30;66893;44.316;0.092;2023-04-06T11:19:58;20.33;33.68
76785;SHT30;66893;44.316;0.092;2023-04-06T11:22:25;20.39;33.98
76785;SHT30;66893;44.316;0.092;2023-04-06T11:24:51;20.44;34.00
76785;SHT30;66893;44.316;0.092;2023-04-06T11:27:18;20.50;33.97
76785;SHT30;66893;44.316;0.092;2023-04-06T11:29:44;20.55;33.90
76785;SHT30;66893;44.316;0.092;2023-04-06T11:32:20;20.63;33.74
76785;SHT30;66893;44.316;0.092;2023-04-06T11:34:47;20.74;33.62
76785;SHT30;66893;44.316;0.092;2023-04-06T11:37:13;20.82;33.61
76785;SHT30;66893;44.316;0.092;2023-04-06T11:39:40;20.89;33.56
76785;SHT30;66893;44.316;0.092;2023-04-06T11:42:06;21.00;33.23
76785;SHT30;66893;44.316;0.092;2023-04-06T11:44:34;21.08;32.93
76785;SHT30;66893;44.316;0.092;2023-04-06T11:47:01;21.16;33.21
76785;SHT30;66893;44.316;0.092;2023-04-06T11:49:28;21.23;33.19
76785;SHT30;66893;44.316;0.092;2023-04-06T11:51:54;21.29;32.67
76785;SHT30;66893;44.316;0.092;2023-04-06T11:54:34;21.34;32.78
76785;SHT30;66893;44.316;0.092;2023-04-06T11:57:00;21.46;32.72
76785;SHT30;66893;44.316;0.092;2023-04-06T11:59:26;21.53;32.66
76785;SHT30;66893;44.316;0.092;2023-04-06T12:01:52;21.60;32.62
76785;SHT30;66893;44.316;0.092;2023-04-06T12:04:18;21.70;32.41
76785;SHT30;66893;44.316;0.092;2023-04-06T12:06:44;21.75;32.39
76785;SHT30;66893;44.316;0.092;2023-04-06T12:09:10;21.85;32.29
76785;SHT30;66893;44.316;0.092;2023-04-06T12:11:35;21.92;31.82
76785;SHT30;66893;44.316;0.092;2023-04-06T12:14:01;21.98;31.93
76785;SHT30;66893;44.316;0.092;2023-04-06T12:16:30;22.08;31.68
76785;SHT30;66893;44.316;0.092;2023-04-06T12:18:55;22.16;31.90
76785;SHT30;66893;44.316;0.092;2023-04-06T12:21:21;22.25;31.32
76785;SHT30;66893;44.316;0.092;2023-04-06T12:23:46;22.32;31.50
76785;SHT30;66893;44.316;0.092;2023-04-06T12:26:12;22.42;31.15
76785;SHT30;66893;44.316;0.092;2023-04-06T12:28:37;22.47;30.98
76785;SHT30;66893;44.316;0.092;2023-04-06T12:31:03;22.57;31.14
76785;SHT30;66893;44.316;0.092;2023-04-06T12:33:28;22.65;30.99
76785;SHT30;66893;44.316;0.092;2023-04-06T12:35:54;22.70;30.99
76785;SHT30;66893;44.316;0.092;2023-04-06T12:38:19;22.75;31.20
76785;SHT30;66893;44.316;0.092;2023-04-06T12:40:45;22.87;31.07
76785;SHT30;66893;44.316;0.092;2023-04-06T12:43:11;22.92;30.35
76785;SHT30;66893;44.316;0.092;2023-04-06T12:45:39;23.05;30.87
76785;SHT30;66893;44.316;0.092;2023-04-06T12:48:04;23.14;30.76
76785;SHT30;66893;44.316;0.092;2023-04-06T12:50:30;23.19;30.42
76785;SHT30;66893;44.316;0.092;2023-04-06T12:52:56;23.26;30.38
76785;SHT30;66893;44.316;0.092;2023-04-06T12:55:21;23.32;30.65
76785;SHT30;66893;44.316;0.092;2023-04-06T12:57:47;23.39;30.72
76785;SHT30;66893;44.316;0.092;2023-04-06T13:00:13;23.42;30.76
76785;SHT30;66893;44.316;0.092;2023-04-06T13:02:39;23.46;30.77
76785;SHT30;66893;44.316;0.092;2023-04-06T13:05:05;23.47;30.78
76785;SHT30;66893;44.316;0.092;2023-04-06T13:07:31;23.50;30.86
76785;SHT30;66893;44.316;0.092;2023-04-06T13:09:56;23.53;30.85
76785;SHT30;66893;44.316;0.092;2023-04-06T13:12:22;23.56;30.82
76785;SHT30;66893;44.316;0.092;2023-04-06T13:14:47;23.63;30.91
76785;SHT30;66893;44.316;0.092;2023-04-06T13:17:16;23.64;30.92
76785;SHT30;66893;44.316;0.092;2023-04-06T13:19:43;23.71;30.86
76785;SHT30;66893;44.316;0.092;2023-04-06T13:22:08;23.75;30.86
76785;SHT30;66893;44.316;0.092;2023-04-06T13:24:34;23.82;30.92
76785;SHT30;66893;44.316;0.092;2023-04-06T13:27:00;23.90;30.91
76785;SHT30;66893;44.316;0.092;2023-04-06T13:29:26;23.98;30.91
76785;SHT30;66893;44.316;0.092;2023-04-06T13:31:52;24.04;30.90
76785;SHT30;66893;44.316;0.092;2023-04-06T13:34:18;24.12;30.89
76785;SHT30;66893;44.316;0.092;2023-04-06T13:36:43;24.25;30.91
76785;SHT30;66893;44.316;0.092;2023-04-06T13:39:09;24.39;30.85
76785;SHT30;66893;44.316;0.092;2023-04-06T13:41:34;24.53;30.75
76785;SHT30;66893;44.316;0.092;2023-04-06T13:44:00;24.63;30.74
76785;SHT30;66893;44.316;0.092;2023-04-06T13:46:25;24.80;30.67
76785;SHT30;66893;44.316;0.092;2023-04-06T13:48:52;24.95;30.56
76785;SHT30;66893;44.316;0.092;2023-04-06T13:51:18;25.04;30.47
76785;SHT30;66893;44.316;0.092;2023-04-06T13:53:44;25.18;30.50
76785;SHT30;66893;44.316;0.092;2023-04-06T13:56:09;25.25;30.46
76785;SHT30;66893;44.316;0.092;2023-04-06T13:58:35;25.34;30.42
76785;SHT30;66893;44.316;0.092;2023-04-06T14:01:10;25.47;30.41
76785;SHT30;66893;44.316;0.092;2023-04-06T14:03:36;25.50;30.29
76785;SHT30;66893;44.316;0.092;2023-04-06T14:06:12;25.47;30.31
76785;SHT30;66893;44.316;0.092;2023-04-06T14:08:37;25.46;30.28
76785;SHT30;66893;44.316;0.092;2023-04-06T14:11:03;25.50;30.26
76785;SHT30;66893;44.316;0.092;2023-04-06T14:13:29;25.58;30.21
76785;SHT30;66893;44.316;0.092;2023-04-06T14:15:54;25.69;30.18
76785;SHT30;66893;44.316;0.092;2023-04-06T14:18:21;25.80;30.16
76785;SHT30;66893;44.316;0.092;2023-04-06T14:20:56;25.93;30.11
76785;SHT30;66893;44.316;0.092;2023-04-06T14:23:23;26.02;30.12
76785;SHT30;66893;44.316;0.092;2023-04-06T14:25:51;26.04;30.07
76785;SHT30;66893;44.316;0.092;2023-04-06T14:28:16;26.10;30.05
76785;SHT30;66893;44.316;0.092;2023-04-06T14:30:42;26.21;30.09
76785;SHT30;66893;44.316;0.092;2023-04-06T14:33:08;26.44;30.03
76785;SHT30;66893;44.316;0.092;2023-04-06T14:35:38;26.72;30.00
76785;SHT30;66893;44.316;0.092;2023-04-06T14:38:03;27.07;29.94
76785;SHT30;66893;44.316;0.092;2023-04-06T14:40:29;27.56;29.68
76785;SHT30;66893;44.316;0.092;2023-04-06T14:42:54;28.11;29.43
76785;SHT30;66893;44.316;0.092;2023-04-06T14:45:21;28.92;28.86
76785;SHT30;66893;44.316;0.092;2023-04-06T14:47:47;29.81;28.07
76785;SHT30;66893;44.316;0.092;2023-04-06T14:50:13;30.65;27.36
76785;SHT30;66893;44.316;0.092;2023-04-06T14:52:38;30.96;26.83
76785;SHT30;66893;44.316;0.092;2023-04-06T14:55:04;31.22;26.57
76785;SHT30;66893;44.316;0.092;2023-04-06T14:57:30;31.41;26.19
76785;SHT30;66893;44.316;0.092;2023-04-06T14:59:56;31.68;25.97
76785;SHT30;66893;44.316;0.092;2023-04-06T15:02:21;32.39;25.50
76785;SHT30;66893;44.316;0.092;2023-04-06T15:04:47;33.11;24.66
76785;SHT30;66893;44.316;0.092;2023-04-06T15:07:12;33.66;24.33
76785;SHT30;66893;44.316;0.092;2023-04-06T15:09:38;33.52;24.23
76785;SHT30;66893;44.316;0.092;2023-04-06T15:12:03;33.17;24.45
76785;SHT30;66893;44.316;0.092;2023-04-06T15:14:29;32.87;24.66
76785;SHT30;66893;44.316;0.092;2023-04-06T15:16:54;33.36;24.50
76785;SHT30;66893;44.316;0.092;2023-04-06T15:19:21;34.42;23.74
76785;SHT30;66893;44.316;0.092;2023-04-06T15:21:46;35.44;22.80
76785;SHT30;66893;44.316;0.092;2023-04-06T15:24:11;36.27;22.08
76785;SHT30;66893;44.316;0.092;2023-04-06T15:26:37;36.81;21.51
76785;SHT30;66893;44.316;0.092;2023-04-06T15:29:02;37.22;21.04
76785;SHT30;66893;44.316;0.092;2023-04-06T15:31:28;37.65;20.77
76785;SHT30;66893;44.316;0.092;2023-04-06T15:33:54;38.05;20.50
76785;SHT30;66893;44.316;0.092;2023-04-06T15:36:26;38.35;20.32
76785;SHT30;66893;44.316;0.092;2023-04-06T15:38:54;38.57;20.13